createdAt,value
2023-05-13T00:04:38.671Z,101124.95
2023-05-13T00:09:42.706Z,101128.69
2023-05-13T00:14:46.270Z,101135.49
2023-05-13T00:19:50.151Z,101133.70
2023-05-13T00:24:53.579Z,101134.25
2023-05-13T00:29:59.580Z,101128.56
2023-05-13T00:35:04.164Z,101126.70
2023-05-13T00:40:22.991Z,101127.15
2023-05-13T00:45:26.968Z,101131.45
2023-05-13T00:50:30.417Z,101139.39
2023-05-13T00:55:34.036Z,101140.71
2023-05-13T01:00:49.952Z,101141.81
2023-05-13T01:06:35.612Z,101148.89
2023-05-13T01:11:44.429Z,101156.10
2023-05-13T01:17:33.403Z,101160.54
2023-05-13T01:22:39.459Z,101153.63
2023-05-13T01:27:46.011Z,101150.08
2023-05-13T01:32:53.422Z,101154.17
2023-05-13T01:38:02.812Z,101147.62
2023-05-13T01:43:06.777Z,101149.27
2023-05-13T01:48:12.105Z,101156.50
2023-05-13T01:53:20.293Z,101159.09
2023-05-13T01:58:23.884Z,101163.77
2023-05-13T02:03:27.822Z,101165.48
2023-05-13T02:08:31.388Z,101160.31
2023-05-13T02:13:34.944Z,101159.36
2023-05-13T02:18:38.466Z,101161.73
2023-05-13T02:23:42.266Z,101166.13
2023-05-13T02:28:45.540Z,101166.17
2023-05-13T02:33:49.776Z,101165.63
2023-05-13T02:38:54.306Z,101162.91
2023-05-13T02:43:57.803Z,101160.58
2023-05-13T02:49:01.497Z,101163.52
2023-05-13T02:54:07.198Z,101162.65
2023-05-13T02:59:11.331Z,101165.11
2023-05-13T03:04:15.073Z,101169.11
2023-05-13T03:09:18.625Z,101168.59
2023-05-13T03:14:23.298Z,101160.50
2023-05-13T03:19:27.806Z,101162.17
2023-05-13T03:24:32.886Z,101168.90
2023-05-13T03:29:42.741Z,101163.80
2023-05-13T03:34:46.836Z,101173.19
2023-05-13T03:39:53.878Z,101166.31
2023-05-13T03:44:57.578Z,101161.90
2023-05-13T03:50:01.734Z,101165.39
2023-05-13T03:55:09.198Z,101172.03
2023-05-13T04:00:13.727Z,101180.14
2023-05-13T04:05:25.454Z,101183.58
2023-05-13T04:10:29.592Z,101184.38
2023-05-13T04:15:34.314Z,101183.58
2023-05-13T04:20:40.879Z,101181.19
2023-05-13T04:25:53.895Z,101182.02
2023-05-13T04:31:00.673Z,101178.26
2023-05-13T04:36:04.883Z,101182.55
2023-05-13T04:41:08.911Z,101180.17
2023-05-13T04:46:17.057Z,101193.86
2023-05-13T04:51:20.808Z,101205.24
2023-05-13T04:56:28.331Z,101208.70
2023-05-13T05:01:32.194Z,101212.66
2023-05-13T05:06:36.331Z,101213.14
2023-05-13T05:11:40.354Z,101212.23
2023-05-13T05:16:43.997Z,101211.90
2023-05-13T05:21:47.872Z,101205.78
2023-05-13T05:26:52.046Z,101213.55
2023-05-13T05:31:56.521Z,101215.12
2023-05-13T05:37:03.175Z,101214.11
2023-05-13T05:42:08.725Z,101221.27
2023-05-13T05:47:12.661Z,101216.89
2023-05-13T05:52:16.470Z,101217.46
2023-05-13T05:57:20.458Z,101219.79
2023-05-13T06:02:24.962Z,101214.63
2023-05-13T06:07:28.991Z,101211.17
2023-05-13T06:12:33.189Z,101213.64
2023-05-13T06:17:37.656Z,101211.92
2023-05-13T06:22:42.031Z,101212.24
2023-05-13T06:27:45.638Z,101206.21
2023-05-13T06:32:57.865Z,101204.41
2023-05-13T06:38:06.608Z,101205.85
2023-05-13T06:43:14.602Z,101204.25
2023-05-13T06:48:22.229Z,101202.36
2023-05-13T06:53:25.846Z,101203.56
2023-05-13T06:58:29.045Z,101205.42
2023-05-13T07:03:32.637Z,101207.23
2023-05-13T07:08:35.783Z,101200.43
2023-05-13T07:13:39.286Z,101197.27
2023-05-13T07:18:43.245Z,101196.67
2023-05-13T07:23:46.717Z,101199.38
2023-05-13T07:28:50.111Z,101198.71
2023-05-13T07:33:53.464Z,101195.04
2023-05-13T07:38:56.839Z,101194.35
2023-05-13T07:43:59.978Z,101191.92
2023-05-13T07:49:06.651Z,101187.39
2023-05-13T07:54:10.543Z,101180.61
2023-05-13T07:59:14.112Z,101180.86
2023-05-13T08:04:17.603Z,101177.23
2023-05-13T08:09:21.293Z,101177.17
2023-05-13T08:14:24.612Z,101169.09
2023-05-13T08:19:27.877Z,101164.83
2023-05-13T08:24:31.346Z,101168.59
2023-05-13T08:29:34.589Z,101174.04
2023-05-13T08:34:37.958Z,101173.09
2023-05-13T08:39:41.154Z,101172.77
2023-05-13T08:44:45.154Z,101168.39
2023-05-13T08:49:49.837Z,101169.08
2023-05-13T08:54:54.601Z,101167.99
2023-05-13T08:59:57.982Z,101169.17
2023-05-13T09:05:09.932Z,101163.33
2023-05-13T09:10:13.232Z,101159.49
2023-05-13T09:15:23.348Z,101156.44
2023-05-13T09:20:27.661Z,101153.21
2023-05-13T09:25:31.835Z,101149.30
2023-05-13T09:30:45.641Z,101149.16
2023-05-13T09:35:53.652Z,101140.77
2023-05-13T09:41:01.995Z,101134.17
2023-05-13T09:46:05.661Z,101135.96
2023-05-13T09:51:09.131Z,101133.44
2023-05-13T09:56:12.463Z,101128.92
2023-05-13T10:01:16.241Z,101121.57
2023-05-13T10:06:23.944Z,101119.51
2023-05-13T10:11:29.417Z,101107.25
2023-05-13T10:16:33.300Z,101103.86
2023-05-13T10:21:38.713Z,101104.36
2023-05-13T10:26:43.824Z,101106.17
2023-05-13T10:31:48.068Z,101105.03
2023-05-13T10:36:59.469Z,101099.15
2023-05-13T10:42:27.706Z,101091.06
2023-05-13T10:47:34.510Z,101092.27
2023-05-13T10:52:48.053Z,101089.21
2023-05-13T10:58:07.443Z,101079.55
2023-05-13T11:03:16.699Z,101072.77
2023-05-13T11:08:43.906Z,101075.61
2023-05-13T11:13:50.553Z,101081.10
2023-05-13T11:18:54.103Z,101080.29
2023-05-13T11:24:05.726Z,101081.88
2023-05-13T11:29:09.198Z,101086.63
2023-05-13T11:34:14.616Z,101084.90
2023-05-13T11:39:19.908Z,101079.60
2023-05-13T11:44:25.202Z,101079.93
2023-05-13T11:49:39.097Z,101076.95
2023-05-13T11:54:47.463Z,101075.02
2023-05-13T12:00:05.655Z,101067.81
2023-05-13T12:05:12.196Z,101069.55
2023-05-13T12:10:16.095Z,101065.23
2023-05-13T12:15:21.575Z,101056.34
2023-05-13T12:20:26.243Z,101054.81
2023-05-13T12:25:35.365Z,101054.45
2023-05-13T12:30:41.076Z,101054.09
2023-05-13T12:35:48.436Z,101053.61
2023-05-13T12:40:52.552Z,101057.66
2023-05-13T12:45:55.865Z,101056.83
2023-05-13T12:51:00.727Z,101052.98
2023-05-13T12:56:05.889Z,101046.58
2023-05-13T13:01:09.158Z,101044.94
2023-05-13T13:06:14.028Z,101040.98
2023-05-13T13:11:20.089Z,101046.52
2023-05-13T13:16:23.933Z,101043.96
2023-05-13T13:21:27.292Z,101035.45
2023-05-13T13:26:30.612Z,101034.52
2023-05-13T13:31:33.785Z,101029.86
2023-05-13T13:36:37.056Z,101025.50
2023-05-13T13:41:40.431Z,101024.79
2023-05-13T13:46:43.755Z,101022.16
2023-05-13T13:51:47.085Z,101016.64
2023-05-13T13:56:50.324Z,101012.66
2023-05-13T14:01:54.167Z,101013.59
2023-05-13T14:06:58.065Z,101016.49
2023-05-13T14:12:01.320Z,101015.87
2023-05-13T14:17:04.586Z,101010.23
2023-05-13T14:22:08.016Z,101012.64
2023-05-13T14:27:11.665Z,101011.56
2023-05-13T14:32:15.517Z,101007.03
2023-05-13T14:37:18.802Z,101005.66
2023-05-13T14:42:21.987Z,101007.00
2023-05-13T14:47:25.696Z,101006.59
2023-05-13T14:52:29.330Z,101004.41
2023-05-13T14:57:32.542Z,101005.00
2023-05-13T15:02:36.122Z,101004.05
2023-05-13T15:07:39.653Z,101000.77
2023-05-13T15:12:42.898Z,100997.28
2023-05-13T15:17:46.247Z,100997.55
2023-05-13T15:22:49.532Z,101000.01
2023-05-13T15:27:53.188Z,101006.02
2023-05-13T15:32:56.490Z,101001.70
2023-05-13T15:38:00.071Z,100994.34
2023-05-13T15:43:03.604Z,100999.81
2023-05-13T15:48:07.785Z,101000.92
2023-05-13T15:53:11.311Z,101005.39
2023-05-13T15:58:14.611Z,101005.88
2023-05-13T16:03:18.010Z,101002.79
2023-05-13T16:08:21.629Z,101009.20
2023-05-13T16:13:24.894Z,101003.32
2023-05-13T16:18:28.248Z,101003.48
2023-05-13T16:23:31.418Z,101000.13
2023-05-13T16:28:34.641Z,100999.75
2023-05-13T16:33:37.959Z,100995.39
2023-05-13T16:38:41.759Z,100996.40
2023-05-13T16:43:46.026Z,100995.73
2023-05-13T16:48:49.384Z,100996.22
2023-05-13T16:53:52.714Z,100996.81
2023-05-13T16:58:56.026Z,100995.06
2023-05-13T17:03:59.440Z,100994.13
2023-05-13T17:09:02.632Z,100994.56
2023-05-13T17:14:06.634Z,100995.80
2023-05-13T17:19:10.141Z,101003.14
2023-05-13T17:24:13.458Z,101025.91
2023-05-13T17:29:16.710Z,101044.64
2023-05-13T17:34:20.756Z,101050.13
2023-05-13T17:39:24.422Z,101052.10
2023-05-13T17:45:03.888Z,101055.62
2023-05-13T17:50:08.231Z,101119.07
2023-05-13T17:55:11.603Z,101066.48
2023-05-13T18:00:27.848Z,101055.98
2023-05-13T18:05:31.436Z,101045.34
2023-05-13T18:11:18.327Z,101035.72
2023-05-13T18:16:43.022Z,101033.23
2023-05-13T18:21:46.841Z,101033.29
2023-05-13T18:26:50.149Z,101035.67
2023-05-13T18:31:53.693Z,101041.58
2023-05-13T18:37:18.858Z,101048.58
2023-05-13T18:42:22.406Z,101046.10
2023-05-13T18:47:25.852Z,101045.48
2023-05-13T18:52:29.161Z,101049.08
2023-05-13T18:57:44.452Z,101051.38
2023-05-13T19:02:47.910Z,101056.14
2023-05-13T19:07:51.253Z,101052.10
2023-05-13T19:12:54.590Z,101042.02
2023-05-13T19:17:57.909Z,101042.73
2023-05-13T19:23:16.203Z,101045.14
2023-05-13T19:28:19.730Z,101045.77
2023-05-13T19:33:23.574Z,101048.23
2023-05-13T19:38:26.900Z,101053.98
2023-05-13T19:43:30.121Z,101058.88
2023-05-13T19:48:33.371Z,101062.70
2023-05-13T19:54:23.137Z,101061.73
2023-05-13T19:59:26.450Z,101068.31
2023-05-13T20:04:29.680Z,101066.42
2023-05-13T20:09:32.979Z,101061.96
2023-05-13T20:14:51.961Z,101059.39
2023-05-13T20:19:55.860Z,101058.95
2023-05-13T20:24:59.220Z,101062.00
2023-05-13T20:30:03.319Z,101063.17
2023-05-13T20:35:10.198Z,101056.58
2023-05-13T20:40:13.636Z,101058.61
2023-05-13T20:45:17.246Z,101057.77
2023-05-13T20:50:20.781Z,101061.30
2023-05-13T20:56:01.800Z,101063.36
2023-05-13T21:01:05.158Z,101061.73
2023-05-13T21:06:08.797Z,101060.83
2023-05-13T21:11:12.213Z,101057.33
2023-05-13T21:16:28.729Z,101055.86
2023-05-13T21:21:32.271Z,101062.53
2023-05-13T21:33:20.675Z,101054.66
2023-05-13T21:38:36.313Z,101053.11
2023-05-13T21:43:39.463Z,101054.59
2023-05-13T21:48:42.675Z,101054.52
2023-05-13T21:53:45.998Z,101050.92
2023-05-13T21:58:52.011Z,101048.16
2023-05-13T22:04:39.259Z,101048.88
2023-05-13T22:09:51.367Z,101049.45
2023-05-13T22:14:54.671Z,101052.29
2023-05-13T22:19:57.889Z,101049.80
2023-05-13T22:25:01.213Z,101047.75
2023-05-13T22:30:05.035Z,101047.80
2023-05-13T22:35:09.396Z,101050.48
2023-05-13T22:40:13.438Z,101048.81
2023-05-13T22:45:16.825Z,101050.31
2023-05-13T22:50:20.149Z,101047.23
2023-05-13T22:55:23.499Z,101047.82
2023-05-13T23:00:26.808Z,101052.24
2023-05-13T23:05:30.765Z,101047.36
2023-05-13T23:10:34.083Z,101045.22
2023-05-13T23:15:37.504Z,101048.13
2023-05-13T23:20:40.805Z,101051.48
2023-05-13T23:25:48.077Z,101049.35
2023-05-13T23:30:54.468Z,101052.02
2023-05-13T23:35:57.708Z,101046.54
2023-05-13T23:41:01.110Z,101049.01
2023-05-13T23:46:04.426Z,101047.89
2023-05-13T23:51:07.975Z,101049.80
2023-05-13T23:56:11.668Z,101051.45
